sensor_id;sensor_type;location;lat;lon;timestamp;P1;P2;P0
56069;PMS5003;41944;52.078;-0.058;2022-09-09T00:01:57;6;5;
56069;PMS5003;41944;52.078;-0.058;2022-09-09T00:04:29;5;5;
56069;PMS5003;41944;52.078;-0.058;2022-09-09T00:07:00;7;6;
56069;PMS5003;41944;52.078;-0.058;2022-09-09T00:09:34;5;5;
56069;PMS5003;41944;52.078;-0.058;2022-09-09T00:12:10;6;6;
56069;PMS5003;41944;52.078;-0.058;2022-09-09T00:14:42;10;6;
56069;PMS5003;41944;52.078;-0.058;2022-09-09T00:17:17;7;6;
56069;PMS5003;41944;52.078;-0.058;2022-09-09T00:19:59;8;5;
56069;PMS5003;41944;52.078;-0.058;2022-09-09T00:22:31;7;7;
56069;PMS5003;41944;52.078;-0.058;2022-09-09T00:25:01;6;4;
56069;PMS5003;41944;52.078;-0.058;2022-09-09T00:27:38;5;5;
56069;PMS5003;41944;52.078;-0.058;2022-09-09T00:30:15;5;5;
56069;PMS5003;41944;52.078;-0.058;2022-09-09T00:32:43;7;5;
56069;PMS5003;41944;52.078;-0.058;2022-09-09T00:35:14;8;7;
56069;PMS5003;41944;52.078;-0.058;2022-09-09T00:37:44;6;5;
56069;PMS5003;41944;52.078;-0.058;2022-09-09T00:40:18;6;6;
56069;PMS5003;41944;52.078;-0.058;2022-09-09T00:42:51;6;5;
56069;PMS5003;41944;52.078;-0.058;2022-09-09T00:45:38;8;6;
56069;PMS5003;41944;52.078;-0.058;2022-09-09T00:48:22;6;5;
56069;PMS5003;41944;52.078;-0.058;2022-09-09T00:50:59;7;6;
56069;PMS5003;41944;52.078;-0.058;2022-09-09T00:53:38;11;5;
56069;PMS5003;41944;52.078;-0.058;2022-09-09T00:56:11;6;6;
56069;PMS5003;41944;52.078;-0.058;2022-09-09T00:58:42;6;5;
56069;PMS5003;41944;52.078;-0.058;2022-09-09T01:01:15;6;6;
56069;PMS5003;41944;52.078;-0.058;2022-09-09T01:03:43;5;4;
56069;PMS5003;41944;52.078;-0.058;2022-09-09T01:06:19;11;7;
56069;PMS5003;41944;52.078;-0.058;2022-09-09T01:08:55;8;8;
56069;PMS5003;41944;52.078;-0.058;2022-09-09T01:11:32;5;5;
56069;PMS5003;41944;52.078;-0.058;2022-09-09T01:14:10;8;6;
56069;PMS5003;41944;52.078;-0.058;2022-09-09T01:16:43;14;3;
56069;PMS5003;41944;52.078;-0.058;2022-09-09T01:19:14;7;6;
56069;PMS5003;41944;52.078;-0.058;2022-09-09T01:21:54;5;4;
56069;PMS5003;41944;52.078;-0.058;2022-09-09T01:24:31;8;7;
56069;PMS5003;41944;52.078;-0.058;2022-09-09T01:27:05;7;5;
56069;PMS5003;41944;52.078;-0.058;2022-09-09T01:29:33;6;6;
56069;PMS5003;41944;52.078;-0.058;2022-09-09T01:32:01;6;6;
56069;PMS5003;41944;52.078;-0.058;2022-09-09T01:34:31;5;4;
56069;PMS5003;41944;52.078;-0.058;2022-09-09T01:37:03;4;4;
56069;PMS5003;41944;52.078;-0.058;2022-09-09T01:39:33;6;6;
56069;PMS5003;41944;52.078;-0.058;2022-09-09T01:42:02;5;5;
56069;PMS5003;41944;52.078;-0.058;2022-09-09T01:44:32;8;6;
56069;PMS5003;41944;52.078;-0.058;2022-09-09T01:47:01;9;5;
56069;PMS5003;41944;52.078;-0.058;2022-09-09T01:49:29;9;6;
56069;PMS5003;41944;52.078;-0.058;2022-09-09T01:51:56;7;6;
56069;PMS5003;41944;52.078;-0.058;2022-09-09T01:54:24;10;6;
56069;PMS5003;41944;52.078;-0.058;2022-09-09T01:56:56;11;7;
56069;PMS5003;41944;52.078;-0.058;2022-09-09T01:59:37;5;5;
56069;PMS5003;41944;52.078;-0.058;2022-09-09T02:02:16;6;6;
56069;PMS5003;41944;52.078;-0.058;2022-09-09T02:04:45;7;6;
56069;PMS5003;41944;52.078;-0.058;2022-09-09T02:07:19;7;5;
56069;PMS5003;41944;52.078;-0.058;2022-09-09T02:09:57;7;6;
56069;PMS5003;41944;52.078;-0.058;2022-09-09T02:12:28;6;6;
56069;PMS5003;41944;52.078;-0.058;2022-09-09T02:14:58;9;6;
56069;PMS5003;41944;52.078;-0.058;2022-09-09T02:17:30;9;5;
56069;PMS5003;41944;52.078;-0.058;2022-09-09T02:20:03;8;7;
56069;PMS5003;41944;52.078;-0.058;2022-09-09T02:22:33;9;7;
56069;PMS5003;41944;52.078;-0.058;2022-09-09T02:25:03;6;6;
56069;PMS5003;41944;52.078;-0.058;2022-09-09T02:27:34;7;7;
56069;PMS5003;41944;52.078;-0.058;2022-09-09T02:30:01;9;7;
56069;PMS5003;41944;52.078;-0.058;2022-09-09T02:32:30;8;6;
56069;PMS5003;41944;52.078;-0.058;2022-09-09T02:35:02;6;6;
56069;PMS5003;41944;52.078;-0.058;2022-09-09T02:37:35;7;7;
56069;PMS5003;41944;52.078;-0.058;2022-09-09T02:40:04;4;4;
56069;PMS5003;41944;52.078;-0.058;2022-09-09T02:42:38;10;8;
56069;PMS5003;41944;52.078;-0.058;2022-09-09T02:45:06;5;5;
56069;PMS5003;41944;52.078;-0.058;2022-09-09T02:47:35;8;7;
56069;PMS5003;41944;52.078;-0.058;2022-09-09T02:50:08;5;5;
56069;PMS5003;41944;52.078;-0.058;2022-09-09T02:52:44;8;8;
56069;PMS5003;41944;52.078;-0.058;2022-09-09T02:55:21;8;7;
56069;PMS5003;41944;52.078;-0.058;2022-09-09T02:57:53;9;7;
56069;PMS5003;41944;52.078;-0.058;2022-09-09T03:00:23;9;7;
56069;PMS5003;41944;52.078;-0.058;2022-09-09T03:02:52;11;6;
56069;PMS5003;41944;52.078;-0.058;2022-09-09T03:05:19;6;5;
56069;PMS5003;41944;52.078;-0.058;2022-09-09T03:07:47;9;7;
56069;PMS5003;41944;52.078;-0.058;2022-09-09T03:10:14;6;6;
56069;PMS5003;41944;52.078;-0.058;2022-09-09T03:12:40;10;8;
56069;PMS5003;41944;52.078;-0.058;2022-09-09T03:15:08;9;5;
56069;PMS5003;41944;52.078;-0.058;2022-09-09T03:17:35;7;6;
56069;PMS5003;41944;52.078;-0.058;2022-09-09T03:20:03;7;7;
56069;PMS5003;41944;52.078;-0.058;2022-09-09T03:22:31;10;7;
56069;PMS5003;41944;52.078;-0.058;2022-09-09T03:24:57;10;8;
56069;PMS5003;41944;52.078;-0.058;2022-09-09T03:27:24;12;12;
56069;PMS5003;41944;52.078;-0.058;2022-09-09T03:29:51;7;7;
56069;PMS5003;41944;52.078;-0.058;2022-09-09T03:32:18;9;8;
56069;PMS5003;41944;52.078;-0.058;2022-09-09T03:34:46;11;8;
56069;PMS5003;41944;52.078;-0.058;2022-09-09T03:37:13;12;10;
56069;PMS5003;41944;52.078;-0.058;2022-09-09T03:39:40;13;9;
56069;PMS5003;41944;52.078;-0.058;2022-09-09T03:42:06;8;7;
56069;PMS5003;41944;52.078;-0.058;2022-09-09T03:44:33;11;10;
56069;PMS5003;41944;52.078;-0.058;2022-09-09T03:47:01;13;8;
56069;PMS5003;41944;52.078;-0.058;2022-09-09T03:49:28;13;10;
56069;PMS5003;41944;52.078;-0.058;2022-09-09T03:51:54;15;10;
56069;PMS5003;41944;52.078;-0.058;2022-09-09T03:54:22;14;9;
56069;PMS5003;41944;52.078;-0.058;2022-09-09T03:56:49;14;12;
56069;PMS5003;41944;52.078;-0.058;2022-09-09T03:59:17;11;10;
56069;PMS5003;41944;52.078;-0.058;2022-09-09T04:01:43;11;11;
56069;PMS5003;41944;52.078;-0.058;2022-09-09T04:04:11;12;9;
56069;PMS5003;41944;52.078;-0.058;2022-09-09T04:06:38;15;11;
56069;PMS5003;41944;52.078;-0.058;2022-09-09T04:09:04;12;10;
56069;PMS5003;41944;52.078;-0.058;2022-09-09T04:11:31;12;10;
56069;PMS5003;41944;52.078;-0.058;2022-09-09T04:13:59;15;12;
56069;PMS5003;41944;52.078;-0.058;2022-09-09T04:16:26;15;11;
56069;PMS5003;41944;52.078;-0.058;2022-09-09T04:18:53;12;9;
56069;PMS5003;41944;52.078;-0.058;2022-09-09T04:21:20;10;9;
56069;PMS5003;41944;52.078;-0.058;2022-09-09T04:23:47;14;10;
56069;PMS5003;41944;52.078;-0.058;2022-09-09T04:26:13;11;9;
56069;PMS5003;41944;52.078;-0.058;2022-09-09T04:28:40;9;9;
56069;PMS5003;41944;52.078;-0.058;2022-09-09T04:31:08;12;9;
56069;PMS5003;41944;52.078;-0.058;2022-09-09T04:33:38;14;11;
56069;PMS5003;41944;52.078;-0.058;2022-09-09T04:36:06;9;9;
56069;PMS5003;41944;52.078;-0.058;2022-09-09T04:38:33;15;13;
56069;PMS5003;41944;52.078;-0.058;2022-09-09T04:41:01;14;12;
56069;PMS5003;41944;52.078;-0.058;2022-09-09T04:43:28;11;11;
56069;PMS5003;41944;52.078;-0.058;2022-09-09T04:45:56;20;15;
56069;PMS5003;41944;52.078;-0.058;2022-09-09T04:48:23;13;12;
56069;PMS5003;41944;52.078;-0.058;2022-09-09T04:50:55;20;16;
56069;PMS5003;41944;52.078;-0.058;2022-09-09T04:53:23;18;16;
56069;PMS5003;41944;52.078;-0.058;2022-09-09T04:55:51;18;14;
56069;PMS5003;41944;52.078;-0.058;2022-09-09T04:58:19;16;16;
56069;PMS5003;41944;52.078;-0.058;2022-09-09T05:00:45;24;18;
56069;PMS5003;41944;52.078;-0.058;2022-09-09T05:03:12;19;17;
56069;PMS5003;41944;52.078;-0.058;2022-09-09T05:05:39;17;16;
56069;PMS5003;41944;52.078;-0.058;2022-09-09T05:08:07;16;15;
56069;PMS5003;41944;52.078;-0.058;2022-09-09T05:10:36;18;14;
56069;PMS5003;41944;52.078;-0.058;2022-09-09T05:13:05;14;12;
56069;PMS5003;41944;52.078;-0.058;2022-09-09T05:15:32;18;16;
56069;PMS5003;41944;52.078;-0.058;2022-09-09T05:18:00;17;15;
56069;PMS5003;41944;52.078;-0.058;2022-09-09T05:20:28;20;16;
56069;PMS5003;41944;52.078;-0.058;2022-09-09T05:22:55;23;20;
56069;PMS5003;41944;52.078;-0.058;2022-09-09T05:25:23;20;16;
56069;PMS5003;41944;52.078;-0.058;2022-09-09T05:27:50;23;18;
56069;PMS5003;41944;52.078;-0.058;2022-09-09T05:30:18;19;14;
56069;PMS5003;41944;52.078;-0.058;2022-09-09T05:32:44;17;16;
56069;PMS5003;41944;52.078;-0.058;2022-09-09T05:35:12;17;16;
56069;PMS5003;41944;52.078;-0.058;2022-09-09T05:37:39;24;19;
56069;PMS5003;41944;52.078;-0.058;2022-09-09T05:40:06;18;16;
56069;PMS5003;41944;52.078;-0.058;2022-09-09T05:42:34;18;15;
56069;PMS5003;41944;52.078;-0.058;2022-09-09T05:45:01;15;15;
56069;PMS5003;41944;52.078;-0.058;2022-09-09T05:47:28;19;16;
56069;PMS5003;41944;52.078;-0.058;2022-09-09T05:49:55;20;15;
56069;PMS5003;41944;52.078;-0.058;2022-09-09T05:52:22;20;19;
56069;PMS5003;41944;52.078;-0.058;2022-09-09T05:54:50;22;18;
56069;PMS5003;41944;52.078;-0.058;2022-09-09T05:57:17;21;17;
56069;PMS5003;41944;52.078;-0.058;2022-09-09T05:59:44;17;16;
56069;PMS5003;41944;52.078;-0.058;2022-09-09T06:02:11;24;16;
56069;PMS5003;41944;52.078;-0.058;2022-09-09T06:04:38;15;15;
56069;PMS5003;41944;52.078;-0.058;2022-09-09T06:07:05;25;20;
56069;PMS5003;41944;52.078;-0.058;2022-09-09T06:09:32;15;15;
56069;PMS5003;41944;52.078;-0.058;2022-09-09T06:11:59;16;13;
56069;PMS5003;41944;52.078;-0.058;2022-09-09T06:14:26;21;18;
56069;PMS5003;41944;52.078;-0.058;2022-09-09T06:16:53;16;15;
56069;PMS5003;41944;52.078;-0.058;2022-09-09T06:19:20;21;18;
56069;PMS5003;41944;52.078;-0.058;2022-09-09T06:21:47;21;18;
56069;PMS5003;41944;52.078;-0.058;2022-09-09T06:24:14;27;20;
56069;PMS5003;41944;52.078;-0.058;2022-09-09T06:26:41;18;18;
56069;PMS5003;41944;52.078;-0.058;2022-09-09T06:29:09;20;18;
56069;PMS5003;41944;52.078;-0.058;2022-09-09T06:31:37;24;21;
56069;PMS5003;41944;52.078;-0.058;2022-09-09T06:34:05;24;18;
56069;PMS5003;41944;52.078;-0.058;2022-09-09T06:36:34;19;19;
56069;PMS5003;41944;52.078;-0.058;2022-09-09T06:39:03;25;22;
56069;PMS5003;41944;52.078;-0.058;2022-09-09T06:41:31;19;16;
56069;PMS5003;41944;52.078;-0.058;2022-09-09T06:43:59;23;18;
56069;PMS5003;41944;52.078;-0.058;2022-09-09T06:46:27;21;19;
56069;PMS5003;41944;52.078;-0.058;2022-09-09T06:48:55;24;20;
56069;PMS5003;41944;52.078;-0.058;2022-09-09T06:51:23;22;17;
56069;PMS5003;41944;52.078;-0.058;2022-09-09T06:53:53;17;14;
56069;PMS5003;41944;52.078;-0.058;2022-09-09T06:56:22;16;14;
56069;PMS5003;41944;52.078;-0.058;2022-09-09T06:58:51;18;16;
56069;PMS5003;41944;52.078;-0.058;2022-09-09T07:01:19;17;14;
56069;PMS5003;41944;52.078;-0.058;2022-09-09T07:03:49;21;20;
56069;PMS5003;41944;52.078;-0.058;2022-09-09T07:06:18;20;18;
56069;PMS5003;41944;52.078;-0.058;2022-09-09T07:08:48;17;14;
56069;PMS5003;41944;52.078;-0.058;2022-09-09T07:11:17;19;14;
56069;PMS5003;41944;52.078;-0.058;2022-09-09T07:13:46;15;13;
56069;PMS5003;41944;52.078;-0.058;2022-09-09T07:16:14;18;16;
56069;PMS5003;41944;52.078;-0.058;2022-09-09T07:18:43;17;17;
56069;PMS5003;41944;52.078;-0.058;2022-09-09T07:21:11;17;15;
56069;PMS5003;41944;52.078;-0.058;2022-09-09T07:23:40;14;13;
56069;PMS5003;41944;52.078;-0.058;2022-09-09T07:26:08;18;13;
56069;PMS5003;41944;52.078;-0.058;2022-09-09T07:28:36;15;15;
56069;PMS5003;41944;52.078;-0.058;2022-09-09T07:31:04;18;14;
56069;PMS5003;41944;52.078;-0.058;2022-09-09T07:33:33;19;17;
56069;PMS5003;41944;52.078;-0.058;2022-09-09T07:36:03;20;18;
56069;PMS5003;41944;52.078;-0.058;2022-09-09T07:38:37;17;16;
56069;PMS5003;41944;52.078;-0.058;2022-09-09T07:41:05;22;20;
56069;PMS5003;41944;52.078;-0.058;2022-09-09T07:43:33;20;17;
56069;PMS5003;41944;52.078;-0.058;2022-09-09T07:46:00;26;18;
56069;PMS5003;41944;52.078;-0.058;2022-09-09T07:48:28;16;16;
56069;PMS5003;41944;52.078;-0.058;2022-09-09T07:51:04;20;20;
56069;PMS5003;41944;52.078;-0.058;2022-09-09T07:53:34;25;20;
56069;PMS5003;41944;52.078;-0.058;2022-09-09T07:56:02;26;23;
56069;PMS5003;41944;52.078;-0.058;2022-09-09T07:58:30;21;20;
56069;PMS5003;41944;52.078;-0.058;2022-09-09T08:00:57;30;26;
56069;PMS5003;41944;52.078;-0.058;2022-09-09T08:03:25;25;20;
56069;PMS5003;41944;52.078;-0.058;2022-09-09T08:05:52;22;19;
56069;PMS5003;41944;52.078;-0.058;2022-09-09T08:08:19;25;21;
56069;PMS5003;41944;52.078;-0.058;2022-09-09T08:10:46;22;21;
56069;PMS5003;41944;52.078;-0.058;2022-09-09T08:13:14;25;23;
56069;PMS5003;41944;52.078;-0.058;2022-09-09T08:15:41;28;21;
56069;PMS5003;41944;52.078;-0.058;2022-09-09T08:18:08;25;22;
56069;PMS5003;41944;52.078;-0.058;2022-09-09T08:20:35;27;21;
56069;PMS5003;41944;52.078;-0.058;2022-09-09T08:23:03;26;21;
56069;PMS5003;41944;52.078;-0.058;2022-09-09T08:25:31;30;25;
56069;PMS5003;41944;52.078;-0.058;2022-09-09T08:27:58;23;20;
56069;PMS5003;41944;52.078;-0.058;2022-09-09T08:30:25;28;23;
56069;PMS5003;41944;52.078;-0.058;2022-09-09T08:32:52;22;20;
56069;PMS5003;41944;52.078;-0.058;2022-09-09T08:35:19;24;20;
56069;PMS5003;41944;52.078;-0.058;2022-09-09T08:37:47;23;21;
56069;PMS5003;41944;52.078;-0.058;2022-09-09T08:40:19;24;16;
56069;PMS5003;41944;52.078;-0.058;2022-09-09T08:42:55;25;19;
56069;PMS5003;41944;52.078;-0.058;2022-09-09T08:45:29;28;23;
56069;PMS5003;41944;52.078;-0.058;2022-09-09T08:48:03;17;16;
56069;PMS5003;41944;52.078;-0.058;2022-09-09T08:50:38;24;20;
56069;PMS5003;41944;52.078;-0.058;2022-09-09T08:53:09;21;20;
56069;PMS5003;41944;52.078;-0.058;2022-09-09T08:55:42;21;20;
56069;PMS5003;41944;52.078;-0.058;2022-09-09T08:58:14;24;16;
56069;PMS5003;41944;52.078;-0.058;2022-09-09T09:00:50;24;20;
56069;PMS5003;41944;52.078;-0.058;2022-09-09T09:03:27;20;19;
56069;PMS5003;41944;52.078;-0.058;2022-09-09T09:06:04;18;15;
56069;PMS5003;41944;52.078;-0.058;2022-09-09T09:08:42;17;14;
56069;PMS5003;41944;52.078;-0.058;2022-09-09T09:11:14;16;15;
56069;PMS5003;41944;52.078;-0.058;2022-09-09T09:13:43;15;14;
56069;PMS5003;41944;52.078;-0.058;2022-09-09T09:16:16;15;14;
56069;PMS5003;41944;52.078;-0.058;2022-09-09T09:18:48;11;11;
56069;PMS5003;41944;52.078;-0.058;2022-09-09T09:21:19;18;13;
56069;PMS5003;41944;52.078;-0.058;2022-09-09T09:23:54;16;13;
56069;PMS5003;41944;52.078;-0.058;2022-09-09T09:26:25;18;16;
56069;PMS5003;41944;52.078;-0.058;2022-09-09T09:28:57;14;12;
56069;PMS5003;41944;52.078;-0.058;2022-09-09T09:31:27;15;12;
56069;PMS5003;41944;52.078;-0.058;2022-09-09T09:33:55;13;12;
56069;PMS5003;41944;52.078;-0.058;2022-09-09T09:36:23;13;11;
56069;PMS5003;41944;52.078;-0.058;2022-09-09T09:39:00;18;14;
56069;PMS5003;41944;52.078;-0.058;2022-09-09T09:41:29;18;14;
56069;PMS5003;41944;52.078;-0.058;2022-09-09T09:43:57;12;11;
56069;PMS5003;41944;52.078;-0.058;2022-09-09T09:46:25;17;14;
56069;PMS5003;41944;52.078;-0.058;2022-09-09T09:49:00;16;12;
56069;PMS5003;41944;52.078;-0.058;2022-09-09T09:51:29;14;14;
56069;PMS5003;41944;52.078;-0.058;2022-09-09T09:54:08;16;13;
56069;PMS5003;41944;52.078;-0.058;2022-09-09T09:56:44;21;16;
56069;PMS5003;41944;52.078;-0.058;2022-09-09T09:59:33;18;16;
56069;PMS5003;41944;52.078;-0.058;2022-09-09T10:02:20;15;14;
56069;PMS5003;41944;52.078;-0.058;2022-09-09T10:04:48;13;11;
56069;PMS5003;41944;52.078;-0.058;2022-09-09T10:07:17;17;14;
56069;PMS5003;41944;52.078;-0.058;2022-09-09T10:09:47;21;17;
56069;PMS5003;41944;52.078;-0.058;2022-09-09T10:12:22;22;18;
56069;PMS5003;41944;52.078;-0.058;2022-09-09T10:15:04;18;17;
56069;PMS5003;41944;52.078;-0.058;2022-09-09T10:17:39;23;19;
56069;PMS5003;41944;52.078;-0.058;2022-09-09T10:20:24;23;21;
56069;PMS5003;41944;52.078;-0.058;2022-09-09T10:23:05;24;22;
56069;PMS5003;41944;52.078;-0.058;2022-09-09T10:25:47;32;28;
56069;PMS5003;41944;52.078;-0.058;2022-09-09T10:28:32;31;24;
56069;PMS5003;41944;52.078;-0.058;2022-09-09T10:31:11;29;21;
56069;PMS5003;41944;52.078;-0.058;2022-09-09T10:33:48;29;26;
56069;PMS5003;41944;52.078;-0.058;2022-09-09T10:36:19;22;22;
56069;PMS5003;41944;52.078;-0.058;2022-09-09T10:38:49;23;18;
56069;PMS5003;41944;52.078;-0.058;2022-09-09T10:41:30;26;22;
56069;PMS5003;41944;52.078;-0.058;2022-09-09T10:44:10;27;22;
56069;PMS5003;41944;52.078;-0.058;2022-09-09T10:46:48;26;22;
56069;PMS5003;41944;52.078;-0.058;2022-09-09T10:49:29;24;20;
56069;PMS5003;41944;52.078;-0.058;2022-09-09T10:52:14;20;19;
56069;PMS5003;41944;52.078;-0.058;2022-09-09T10:54:51;18;17;
56069;PMS5003;41944;52.078;-0.058;2022-09-09T10:57:26;22;20;
56069;PMS5003;41944;52.078;-0.058;2022-09-09T10:59:58;17;15;
56069;PMS5003;41944;52.078;-0.058;2022-09-09T11:02:30;22;20;
56069;PMS5003;41944;52.078;-0.058;2022-09-09T11:05:00;20;19;
56069;PMS5003;41944;52.078;-0.058;2022-09-09T11:07:34;23;19;
56069;PMS5003;41944;52.078;-0.058;2022-09-09T11:10:14;13;13;
56069;PMS5003;41944;52.078;-0.058;2022-09-09T11:12:48;18;15;
56069;PMS5003;41944;52.078;-0.058;2022-09-09T11:15:22;24;23;
56069;PMS5003;41944;52.078;-0.058;2022-09-09T11:17:56;15;14;
56069;PMS5003;41944;52.078;-0.058;2022-09-09T11:20:27;16;14;
56069;PMS5003;41944;52.078;-0.058;2022-09-09T11:22:55;13;13;
56069;PMS5003;41944;52.078;-0.058;2022-09-09T11:25:29;13;13;
56069;PMS5003;41944;52.078;-0.058;2022-09-09T11:28:05;15;12;
56069;PMS5003;41944;52.078;-0.058;2022-09-09T11:30:49;15;15;
56069;PMS5003;41944;52.078;-0.058;2022-09-09T11:33:34;15;11;
56069;PMS5003;41944;52.078;-0.058;2022-09-09T11:36:20;14;14;
56069;PMS5003;41944;52.078;-0.058;2022-09-09T11:39:05;15;11;
56069;PMS5003;41944;52.078;-0.058;2022-09-09T11:41:44;14;14;
56069;PMS5003;41944;52.078;-0.058;2022-09-09T11:44:11;12;11;
56069;PMS5003;41944;52.078;-0.058;2022-09-09T11:46:43;15;13;
56069;PMS5003;41944;52.078;-0.058;2022-09-09T11:49:25;16;12;
56069;PMS5003;41944;52.078;-0.058;2022-09-09T11:51:53;13;11;
56069;PMS5003;41944;52.078;-0.058;2022-09-09T11:54:27;14;12;
56069;PMS5003;41944;52.078;-0.058;2022-09-09T11:56:56;16;13;
56069;PMS5003;41944;52.078;-0.058;2022-09-09T11:59:24;10;9;
56069;PMS5003;41944;52.078;-0.058;2022-09-09T12:01:55;12;10;
56069;PMS5003;41944;52.078;-0.058;2022-09-09T12:04:28;13;11;
56069;PMS5003;41944;52.078;-0.058;2022-09-09T12:07:00;12;12;
56069;PMS5003;41944;52.078;-0.058;2022-09-09T12:09:32;14;14;
56069;PMS5003;41944;52.078;-0.058;2022-09-09T12:12:21;17;11;
56069;PMS5003;41944;52.078;-0.058;2022-09-09T12:14:55;14;12;
56069;PMS5003;41944;52.078;-0.058;2022-09-09T12:17:26;13;13;
56069;PMS5003;41944;52.078;-0.058;2022-09-09T12:20:04;12;11;
56069;PMS5003;41944;52.078;-0.058;2022-09-09T12:22:42;12;10;
56069;PMS5003;41944;52.078;-0.058;2022-09-09T12:25:20;11;10;
56069;PMS5003;41944;52.078;-0.058;2022-09-09T12:28:02;9;7;
56069;PMS5003;41944;52.078;-0.058;2022-09-09T12:30:46;10;9;
56069;PMS5003;41944;52.078;-0.058;2022-09-09T12:33:20;11;9;
56069;PMS5003;41944;52.078;-0.058;2022-09-09T12:35:50;7;7;
56069;PMS5003;41944;52.078;-0.058;2022-09-09T12:38:22;7;7;
56069;PMS5003;41944;52.078;-0.058;2022-09-09T12:40:56;11;9;
56069;PMS5003;41944;52.078;-0.058;2022-09-09T12:43:25;9;9;
56069;PMS5003;41944;52.078;-0.058;2022-09-09T12:45:54;8;8;
56069;PMS5003;41944;52.078;-0.058;2022-09-09T12:48:27;10;8;
56069;PMS5003;41944;52.078;-0.058;2022-09-09T12:50:58;10;10;
56069;PMS5003;41944;52.078;-0.058;2022-09-09T12:53:26;9;9;
56069;PMS5003;41944;52.078;-0.058;2022-09-09T12:55:58;11;11;
56069;PMS5003;41944;52.078;-0.058;2022-09-09T12:58:27;11;8;
56069;PMS5003;41944;52.078;-0.058;2022-09-09T13:00:56;8;8;
56069;PMS5003;41944;52.078;-0.058;2022-09-09T13:03:24;7;7;
56069;PMS5003;41944;52.078;-0.058;2022-09-09T13:05:51;9;8;
56069;PMS5003;41944;52.078;-0.058;2022-09-09T13:08:20;6;6;
56069;PMS5003;41944;52.078;-0.058;2022-09-09T13:10:47;7;7;
56069;PMS5003;41944;52.078;-0.058;2022-09-09T13:13:17;8;7;
56069;PMS5003;41944;52.078;-0.058;2022-09-09T13:15:48;10;9;
56069;PMS5003;41944;52.078;-0.058;2022-09-09T13:18:18;6;6;
56069;PMS5003;41944;52.078;-0.058;2022-09-09T13:20:49;10;7;
56069;PMS5003;41944;52.078;-0.058;2022-09-09T13:23:18;7;6;
56069;PMS5003;41944;52.078;-0.058;2022-09-09T13:25:55;9;7;
56069;PMS5003;41944;52.078;-0.058;2022-09-09T13:28:24;7;7;
56069;PMS5003;41944;52.078;-0.058;2022-09-09T13:30:55;8;7;
56069;PMS5003;41944;52.078;-0.058;2022-09-09T13:33:23;9;9;
56069;PMS5003;41944;52.078;-0.058;2022-09-09T13:35:57;6;6;
56069;PMS5003;41944;52.078;-0.058;2022-09-09T13:38:26;8;8;
56069;PMS5003;41944;52.078;-0.058;2022-09-09T13:40:56;9;8;
56069;PMS5003;41944;52.078;-0.058;2022-09-09T13:43:25;10;8;
56069;PMS5003;41944;52.078;-0.058;2022-09-09T13:45:54;9;8;
56069;PMS5003;41944;52.078;-0.058;2022-09-09T13:48:24;11;10;
56069;PMS5003;41944;52.078;-0.058;2022-09-09T13:50:55;9;9;
56069;PMS5003;41944;52.078;-0.058;2022-09-09T13:53:24;9;8;
56069;PMS5003;41944;52.078;-0.058;2022-09-09T13:55:52;8;6;
56069;PMS5003;41944;52.078;-0.058;2022-09-09T13:58:19;7;7;
56069;PMS5003;41944;52.078;-0.058;2022-09-09T14:00:47;5;5;
56069;PMS5003;41944;52.078;-0.058;2022-09-09T14:03:15;7;7;
56069;PMS5003;41944;52.078;-0.058;2022-09-09T14:05:43;8;7;
56069;PMS5003;41944;52.078;-0.058;2022-09-09T14:08:14;9;8;
56069;PMS5003;41944;52.078;-0.058;2022-09-09T14:10:46;8;8;
56069;PMS5003;41944;52.078;-0.058;2022-09-09T14:13:13;7;7;
56069;PMS5003;41944;52.078;-0.058;2022-09-09T14:15:41;8;8;
56069;PMS5003;41944;52.078;-0.058;2022-09-09T14:18:09;9;8;
56069;PMS5003;41944;52.078;-0.058;2022-09-09T14:20:38;7;7;
56069;PMS5003;41944;52.078;-0.058;2022-09-09T14:23:08;11;9;
56069;PMS5003;41944;52.078;-0.058;2022-09-09T14:25:39;11;10;
56069;PMS5003;41944;52.078;-0.058;2022-09-09T14:28:09;9;8;
56069;PMS5003;41944;52.078;-0.058;2022-09-09T14:30:38;31;28;
56069;PMS5003;41944;52.078;-0.058;2022-09-09T14:33:06;12;12;
56069;PMS5003;41944;52.078;-0.058;2022-09-09T14:35:36;8;8;
56069;PMS5003;41944;52.078;-0.058;2022-09-09T14:38:03;9;9;
56069;PMS5003;41944;52.078;-0.058;2022-09-09T14:40:31;15;10;
56069;PMS5003;41944;52.078;-0.058;2022-09-09T14:42:59;14;12;
56069;PMS5003;41944;52.078;-0.058;2022-09-09T14:45:26;12;12;
56069;PMS5003;41944;52.078;-0.058;2022-09-09T14:47:54;10;10;
56069;PMS5003;41944;52.078;-0.058;2022-09-09T14:50:21;16;12;
56069;PMS5003;41944;52.078;-0.058;2022-09-09T14:52:50;12;12;
56069;PMS5003;41944;52.078;-0.058;2022-09-09T14:55:17;11;9;
56069;PMS5003;41944;52.078;-0.058;2022-09-09T14:57:44;14;11;
56069;PMS5003;41944;52.078;-0.058;2022-09-09T15:00:11;16;12;
56069;PMS5003;41944;52.078;-0.058;2022-09-09T15:02:39;10;10;
56069;PMS5003;41944;52.078;-0.058;2022-09-09T15:05:06;10;10;
56069;PMS5003;41944;52.078;-0.058;2022-09-09T15:07:34;12;11;
56069;PMS5003;41944;52.078;-0.058;2022-09-09T15:10:01;11;9;
56069;PMS5003;41944;52.078;-0.058;2022-09-09T15:12:29;14;11;
56069;PMS5003;41944;52.078;-0.058;2022-09-09T15:14:57;12;12;
56069;PMS5003;41944;52.078;-0.058;2022-09-09T15:17:24;11;9;
56069;PMS5003;41944;52.078;-0.058;2022-09-09T15:19:51;11;9;
56069;PMS5003;41944;52.078;-0.058;2022-09-09T15:22:19;12;11;
56069;PMS5003;41944;52.078;-0.058;2022-09-09T15:24:46;12;9;
56069;PMS5003;41944;52.078;-0.058;2022-09-09T15:27:12;11;9;
56069;PMS5003;41944;52.078;-0.058;2022-09-09T15:29:39;15;13;
56069;PMS5003;41944;52.078;-0.058;2022-09-09T15:32:06;14;8;
56069;PMS5003;41944;52.078;-0.058;2022-09-09T15:34:34;10;8;
56069;PMS5003;41944;52.078;-0.058;2022-09-09T15:37:01;10;9;
56069;PMS5003;41944;52.078;-0.058;2022-09-09T15:39:28;11;10;
56069;PMS5003;41944;52.078;-0.058;2022-09-09T15:41:55;14;11;
56069;PMS5003;41944;52.078;-0.058;2022-09-09T15:44:23;8;8;
56069;PMS5003;41944;52.078;-0.058;2022-09-09T15:46:51;8;6;
56069;PMS5003;41944;52.078;-0.058;2022-09-09T15:49:19;11;10;
56069;PMS5003;41944;52.078;-0.058;2022-09-09T15:51:51;7;7;
56069;PMS5003;41944;52.078;-0.058;2022-09-09T15:54:20;7;6;
56069;PMS5003;41944;52.078;-0.058;2022-09-09T15:56:50;6;6;
56069;PMS5003;41944;52.078;-0.058;2022-09-09T15:59:20;5;5;
56069;PMS5003;41944;52.078;-0.058;2022-09-09T16:01:48;5;5;
56069;PMS5003;41944;52.078;-0.058;2022-09-09T16:04:15;6;6;
56069;PMS5003;41944;52.078;-0.058;2022-09-09T16:06:42;6;6;
56069;PMS5003;41944;52.078;-0.058;2022-09-09T16:09:09;8;7;
56069;PMS5003;41944;52.078;-0.058;2022-09-09T16:11:36;8;8;
56069;PMS5003;41944;52.078;-0.058;2022-09-09T16:14:05;7;7;
56069;PMS5003;41944;52.078;-0.058;2022-09-09T16:16:32;11;9;
56069;PMS5003;41944;52.078;-0.058;2022-09-09T16:19:00;8;8;
56069;PMS5003;41944;52.078;-0.058;2022-09-09T16:21:31;9;9;
56069;PMS5003;41944;52.078;-0.058;2022-09-09T16:24:00;9;7;
56069;PMS5003;41944;52.078;-0.058;2022-09-09T16:26:29;10;10;
56069;PMS5003;41944;52.078;-0.058;2022-09-09T16:28:57;8;6;
56069;PMS5003;41944;52.078;-0.058;2022-09-09T16:31:25;7;7;
56069;PMS5003;41944;52.078;-0.058;2022-09-09T16:33:54;9;8;
56069;PMS5003;41944;52.078;-0.058;2022-09-09T16:36:22;7;7;